Time;durP1;ratioP1;P1;durP2;ratioP2;P2;SDS_P1;SDS_P2;PMS_P1;PMS_P2;Temp;Humidity;BMP_temperature;BMP_pressure;BME280_temperature;BME280_humidity;BME280_pressure;Samples;Min_cycle;Max_cycle;Signal;HPM_P1;HPM_P2
2022/07/03 00:01:35;;;;;;;3.95;2.30;;;18.70;67.80;;;;;;6231052;23;20035;-69
2022/07/03 00:04:01;;;;;;;5.07;2.22;;;18.60;68.10;;;;;;6231587;23;20485;-70
2022/07/03 00:06:27;;;;;;;3.80;1.90;;;18.60;68.20;;;;;;6241556;23;20306;-70
2022/07/03 00:08:54;;;;;;;3.17;2.03;;;18.50;68.40;;;;;;6230187;23;20693;-69
2022/07/03 00:11:20;;;;;;;3.58;2.22;;;18.50;68.70;;;;;;6230785;23;20008;-70
2022/07/03 00:13:46;;;;;;;2.60;1.98;;;18.40;68.80;;;;;;6242228;23;20113;-70
2022/07/03 00:16:12;;;;;;;2.30;1.80;;;18.40;69.00;;;;;;6231337;23;20506;-69
2022/07/03 00:18:38;;;;;;;2.78;2.00;;;18.40;69.40;;;;;;6230627;23;20011;-69
2022/07/03 00:21:10;;;;;;;3.05;2.10;;;18.40;69.50;;;;;;6231176;23;20012;-70
2022/07/03 00:23:44;;;;;;;2.03;1.83;;;18.40;69.30;;;;;;6230949;23;20036;-69
2022/07/03 00:26:11;;;;;;;2.40;2.20;;;18.40;69.10;;;;;;6231063;23;20039;-70
2022/07/03 00:28:37;;;;;;;2.00;1.80;;;18.40;69.20;;;;;;6230212;23;20952;-70
2022/07/03 00:31:04;;;;;;;4.45;2.22;;;18.30;69.30;;;;;;6230731;23;20091;-69
2022/07/03 00:33:34;;;;;;;2.42;2.20;;;18.30;69.60;;;;;;6240411;23;20016;-70
2022/07/03 00:35:59;;;;;;;2.53;2.25;;;18.30;69.40;;;;;;6230806;23;20390;-70
2022/07/03 00:38:26;;;;;;;2.00;1.80;;;18.30;69.00;;;;;;6239701;23;20004;-70
2022/07/03 00:40:52;;;;;;;2.63;2.08;;;18.30;69.00;;;;;;6231139;23;20690;-70
2022/07/03 00:43:17;;;;;;;2.38;1.95;;;18.30;69.40;;;;;;6231021;23;20011;-70
2022/07/03 00:45:50;;;;;;;4.55;2.28;;;18.30;69.00;;;;;;6239858;23;20339;-70
2022/07/03 00:48:18;;;;;;;4.18;2.00;;;18.20;69.30;;;;;;6230523;23;20535;-70
2022/07/03 00:50:47;;;;;;;2.80;2.17;;;18.10;69.40;;;;;;6229799;23;20016;-70
2022/07/03 00:53:16;;;;;;;7.43;2.33;;;18.10;70.00;;;;;;6230883;23;20082;-70
2022/07/03 00:55:46;;;;;;;2.35;1.98;;;18.10;69.90;;;;;;6230312;23;20016;-70
2022/07/03 00:58:17;;;;;;;2.63;2.15;;;18.10;69.70;;;;;;6229891;23;20012;-70
2022/07/03 01:00:44;;;;;;;4.10;2.10;;;18.10;70.00;;;;;;6229876;23;20012;-70
2022/07/03 01:03:19;;;;;;;2.35;2.00;;;18.10;70.40;;;;;;6230581;23;20458;-70
2022/07/03 01:05:54;;;;;;;6.15;2.33;;;18.00;70.60;;;;;;6240034;23;20011;-70
2022/07/03 01:08:48;;;;;;;3.38;2.33;;;18.00;70.70;;;;;;6230332;23;20040;-69
2022/07/03 01:11:22;;;;;;;5.55;2.47;;;18.00;71.00;;;;;;6231032;23;20016;-69
2022/07/03 01:14:24;;;;;;;3.17;2.40;;;17.90;71.20;;;;;;6230439;23;20446;-69
2022/07/03 01:17:24;;;;;;;2.60;2.40;;;17.90;71.80;;;;;;6231421;23;20022;-69
2022/07/03 01:19:57;;;;;;;2.50;2.30;;;17.90;71.60;;;;;;6231346;23;20016;-70
2022/07/03 01:22:35;;;;;;;3.15;2.30;;;17.80;71.20;;;;;;6231415;23;20377;-70
2022/07/03 01:25:25;;;;;;;4.13;2.40;;;17.80;71.60;;;;;;6230469;23;20030;-69
2022/07/03 01:28:01;;;;;;;2.38;2.13;;;17.80;71.50;;;;;;6230473;23;20035;-70
2022/07/03 01:30:29;;;;;;;3.70;2.20;;;17.80;71.70;;;;;;6239796;23;20004;-70
2022/07/03 01:33:08;;;;;;;2.60;2.40;;;17.80;71.70;;;;;;6231168;23;20012;-69
2022/07/03 01:35:47;;;;;;;4.28;2.67;;;17.80;71.90;;;;;;6229840;23;20012;-69
2022/07/03 01:38:13;;;;;;;2.85;2.55;;;17.80;72.10;;;;;;6229867;23;20338;-69
2022/07/03 01:40:42;;;;;;;2.70;2.50;;;17.90;72.30;;;;;;6229613;23;20430;-70
2022/07/03 01:43:10;;;;;;;2.50;2.30;;;17.80;72.00;;;;;;6231773;23;20035;-70
2022/07/03 01:45:43;;;;;;;2.40;2.13;;;17.80;72.80;;;;;;6231550;23;20004;-70
2022/07/03 01:48:11;;;;;;;3.50;2.65;;;17.80;72.40;;;;;;6231316;23;20504;-70
2022/07/03 01:50:38;;;;;;;2.53;2.25;;;17.80;72.50;;;;;;6231396;23;20075;-69
2022/07/03 01:53:06;;;;;;;2.75;2.47;;;17.80;72.70;;;;;;6231642;23;20742;-70
2022/07/03 01:55:33;;;;;;;3.35;2.50;;;17.80;72.40;;;;;;6242294;23;20438;-69
2022/07/03 01:58:00;;;;;;;3.97;2.45;;;17.90;72.10;;;;;;6232517;23;20069;-69
2022/07/03 02:00:26;;;;;;;3.25;2.95;;;17.80;72.20;;;;;;6232515;23;20645;-70
2022/07/03 02:03:00;;;;;;;3.30;2.30;;;17.90;72.10;;;;;;6232935;23;20012;-70
2022/07/03 02:05:41;;;;;;;2.90;2.38;;;17.90;72.40;;;;;;6205906;23;20023;-70
2022/07/03 02:08:07;;;;;;;3.00;2.67;;;17.80;72.30;;;;;;6232780;23;20016;-70
2022/07/03 02:10:46;;;;;;;3.05;2.42;;;17.80;72.40;;;;;;6233278;23;20444;-70
2022/07/03 02:13:36;;;;;;;3.90;3.13;;;17.80;72.60;;;;;;6232698;23;20770;-70
2022/07/03 02:16:02;;;;;;;3.08;2.75;;;17.80;72.50;;;;;;6233509;23;20008;-70
2022/07/03 02:18:36;;;;;;;3.50;2.92;;;17.80;72.40;;;;;;6180095;23;20461;-70
2022/07/03 02:21:14;;;;;;;4.03;2.90;;;17.70;72.40;;;;;;6233566;23;20008;-69
2022/07/03 02:24:07;;;;;;;3.95;2.80;;;17.70;72.90;;;;;;6205882;23;20446;-69
2022/07/03 02:26:37;;;;;;;3.47;3.17;;;17.70;72.30;;;;;;6232866;23;20538;-70
2022/07/03 02:29:04;;;;;;;4.10;3.33;;;17.70;72.60;;;;;;6232024;23;20066;-69
2022/07/03 02:31:44;;;;;;;4.63;2.67;;;17.70;72.70;;;;;;6243471;23;20834;-69
2022/07/03 02:34:16;;;;;;;4.82;2.88;;;17.60;72.90;;;;;;6232431;23;20016;-70
2022/07/03 02:36:47;;;;;;;3.60;3.17;;;17.60;73.10;;;;;;6232505;23;20088;-69
2022/07/03 02:39:23;;;;;;;3.95;3.40;;;17.60;73.00;;;;;;6232127;23;20012;-70
2022/07/03 02:41:52;;;;;;;;;;;17.60;72.80;;;;;;6233513;23;20019;-70
2022/07/03 02:44:39;;;;;;;3.80;3.40;;;17.50;73.10;;;;;;6232188;23;19907;-70
2022/07/03 02:47:33;;;;;;;5.35;3.33;;;17.50;73.50;;;;;;6232495;23;20016;-69
2022/07/03 02:50:15;;;;;;;3.42;3.13;;;17.50;73.60;;;;;;6231428;23;20011;-70
2022/07/03 02:52:54;;;;;;;4.45;3.33;;;17.40;73.70;;;;;;6232769;23;20015;-70
2022/07/03 02:55:45;;;;;;;4.60;3.53;;;17.40;73.70;;;;;;6243098;23;20027;-69
2022/07/03 02:58:30;;;;;;;3.75;3.35;;;17.40;73.80;;;;;;6241690;22;20012;-70
2022/07/03 03:01:24;;;;;;;3.80;3.40;;;17.30;74.10;;;;;;6232564;23;20016;-69
2022/07/03 03:04:08;;;;;;;6.40;3.45;;;17.30;74.40;;;;;;6232735;23;20124;-70
2022/07/03 03:06:36;;;;;;;4.53;3.85;;;17.30;75.00;;;;;;6241894;23;20015;-69
2022/07/03 03:09:04;;;;;;;5.13;3.35;;;17.30;75.20;;;;;;6204638;23;20814;-70
2022/07/03 03:11:47;;;;;;;3.80;3.17;;;17.30;75.60;;;;;;6233171;23;20008;-70
2022/07/03 03:14:19;;;;;;;3.38;3.08;;;17.30;74.70;;;;;;6232075;23;20007;-70
2022/07/03 03:16:51;;;;;;;5.18;3.80;;;17.20;74.10;;;;;;6231833;23;20008;-69
2022/07/03 03:19:22;;;;;;;3.95;3.28;;;17.20;74.10;;;;;;6231923;23;20031;-69
2022/07/03 03:21:57;;;;;;;4.18;3.53;;;17.20;73.90;;;;;;6242459;23;20496;-70
2022/07/03 03:24:24;;;;;;;3.33;3.03;;;17.20;74.10;;;;;;6242617;23;20055;-70
2022/07/03 03:26:50;;;;;;;5.45;3.67;;;17.20;74.40;;;;;;6205067;23;20011;-70
2022/07/03 03:29:16;;;;;;;3.90;3.50;;;17.20;74.90;;;;;;6230494;23;20086;-70
2022/07/03 03:31:42;;;;;;;3.70;3.40;;;17.20;75.20;;;;;;6231606;23;20066;-70
2022/07/03 03:34:10;;;;;;;6.18;3.25;;;17.10;74.90;;;;;;6231547;23;20008;-70
2022/07/03 03:36:37;;;;;;;4.57;3.50;;;17.10;75.30;;;;;;6231387;23;20008;-69
2022/07/03 03:39:03;;;;;;;3.58;3.17;;;17.10;75.40;;;;;;6231530;23;20012;-70
2022/07/03 03:41:29;;;;;;;3.60;3.30;;;17.10;75.70;;;;;;6232329;23;20734;-70
2022/07/03 03:43:54;;;;;;;4.00;3.60;;;17.10;76.00;;;;;;6231221;23;20529;-69
2022/07/03 03:46:20;;;;;;;4.28;3.55;;;17.20;76.30;;;;;;6231922;23;20041;-70
2022/07/03 03:48:47;;;;;;;5.68;3.70;;;17.20;76.30;;;;;;6229127;23;20081;-69
2022/07/03 03:51:13;;;;;;;4.75;3.20;;;17.20;76.20;;;;;;6241855;23;20836;-70
2022/07/03 03:53:40;;;;;;;3.80;3.28;;;17.10;76.00;;;;;;6231929;23;20032;-70
2022/07/03 03:56:09;;;;;;;4.57;3.25;;;17.20;76.00;;;;;;6231605;23;20035;-68
2022/07/03 03:58:38;;;;;;;4.93;3.53;;;17.20;76.60;;;;;;6230195;23;20039;-70
2022/07/03 04:01:06;;;;;;;5.55;3.50;;;17.20;76.90;;;;;;6231856;23;20015;-69
2022/07/03 04:03:33;;;;;;;3.58;3.28;;;17.20;77.10;;;;;;6231513;23;20481;-70
2022/07/03 04:05:59;;;;;;;3.50;3.20;;;17.20;76.90;;;;;;6203350;23;20012;-70
2022/07/03 04:08:26;;;;;;;3.95;3.55;;;17.20;77.00;;;;;;6203143;23;20016;-69
2022/07/03 04:10:52;;;;;;;5.25;3.42;;;17.20;76.80;;;;;;6178945;23;20012;-70
2022/07/03 04:13:19;;;;;;;3.80;3.50;;;17.20;76.90;;;;;;6230914;23;20015;-70
2022/07/03 04:15:45;;;;;;;5.72;3.45;;;17.30;77.70;;;;;;6231297;23;20611;-70
2022/07/03 04:18:11;;;;;;;3.92;3.50;;;17.30;77.80;;;;;;6231182;23;20338;-70
2022/07/03 04:20:37;;;;;;;4.30;3.90;;;17.30;77.90;;;;;;6230582;23;20017;-70
2022/07/03 04:23:03;;;;;;;5.30;3.50;;;17.30;77.60;;;;;;6230941;23;20012;-69
2022/07/03 04:25:29;;;;;;;5.43;3.75;;;17.30;76.70;;;;;;6241193;23;20003;-69
2022/07/03 04:27:55;;;;;;;4.93;3.78;;;17.30;77.50;;;;;;6240292;23;20601;-70
2022/07/03 04:30:21;;;;;;;4.45;3.95;;;17.40;77.60;;;;;;6240641;23;20426;-69
2022/07/03 04:32:47;;;;;;;4.57;3.45;;;17.40;77.80;;;;;;6240831;23;20015;-70
2022/07/03 04:35:13;;;;;;;6.35;4.43;;;17.50;78.10;;;;;;6240746;23;20668;-69
2022/07/03 04:37:39;;;;;;;7.25;4.78;;;17.50;78.20;;;;;;6240970;23;20008;-70
2022/07/03 04:40:06;;;;;;;7.93;5.85;;;17.50;77.90;;;;;;6240130;23;20019;-70
2022/07/03 04:42:31;;;;;;;10.00;6.07;;;17.50;78.00;;;;;;6230656;23;20012;-69
2022/07/03 04:44:57;;;;;;;8.82;5.80;;;17.50;78.00;;;;;;6230771;23;20099;-69
2022/07/03 04:47:23;;;;;;;10.23;7.05;;;17.60;77.90;;;;;;6240495;23;20012;-70
2022/07/03 04:49:49;;;;;;;12.00;7.30;;;17.60;78.00;;;;;;6229960;23;20012;-70
2022/07/03 04:52:14;;;;;;;15.27;9.77;;;17.60;78.30;;;;;;6240802;23;20012;-69
2022/07/03 04:54:40;;;;;;;18.88;11.02;;;17.70;78.20;;;;;;6230276;23;20070;-70
2022/07/03 04:57:06;;;;;;;17.75;11.05;;;17.70;77.90;;;;;;6239686;23;20043;-70
2022/07/03 04:59:32;;;;;;;16.50;11.23;;;17.70;77.90;;;;;;6229601;23;20008;-70
2022/07/03 05:01:57;;;;;;;10.55;7.13;;;17.80;78.10;;;;;;6203260;23;20071;-70
2022/07/03 05:04:23;;;;;;;8.48;6.85;;;17.90;77.50;;;;;;6240016;23;20022;-70
2022/07/03 05:06:49;;;;;;;7.45;5.93;;;18.00;77.90;;;;;;6230298;23;20032;-70
2022/07/03 05:09:15;;;;;;;6.38;5.18;;;18.00;77.50;;;;;;6229398;23;20008;-70
2022/07/03 05:11:41;;;;;;;5.05;4.18;;;18.10;77.50;;;;;;6230232;23;20099;-70
2022/07/03 05:14:07;;;;;;;5.70;3.95;;;18.10;76.10;;;;;;6230878;23;20857;-70
2022/07/03 05:16:33;;;;;;;4.10;3.50;;;18.20;76.60;;;;;;6230126;23;20011;-70
2022/07/03 05:18:59;;;;;;;3.78;3.20;;;18.30;76.40;;;;;;6229566;23;20004;-69
2022/07/03 05:21:25;;;;;;;3.67;3.28;;;18.40;74.60;;;;;;6240627;23;20087;-70
2022/07/03 05:23:51;;;;;;;3.72;3.30;;;18.50;74.30;;;;;;6229142;23;20101;-70
2022/07/03 05:26:17;;;;;;;4.90;3.50;;;18.70;74.40;;;;;;6240073;23;20000;-70
2022/07/03 05:28:43;;;;;;;4.05;3.65;;;18.80;74.00;;;;;;6228974;23;20044;-70
2022/07/03 05:31:09;;;;;;;5.65;3.08;;;19.00;72.60;;;;;;6240124;23;20077;-70
2022/07/03 05:33:35;;;;;;;4.50;3.30;;;19.20;71.70;;;;;;6239634;23;20004;-69
2022/07/03 05:36:01;;;;;;;4.80;2.72;;;19.40;71.70;;;;;;6239856;23;20008;-70
2022/07/03 05:41:18;;;;;;;3.58;3.10;;;19.50;69.80;;;;;;6194098;23;20008;-69
2022/07/03 05:43:44;;;;;;;3.78;2.97;;;19.50;69.60;;;;;;6230610;23;20008;-69
2022/07/03 05:46:10;;;;;;;3.78;3.13;;;19.60;69.20;;;;;;6231401;23;20042;-70
2022/07/03 05:48:36;;;;;;;3.83;2.97;;;19.70;68.90;;;;;;6230086;23;20484;-70
2022/07/03 05:51:02;;;;;;;4.03;2.92;;;19.80;68.60;;;;;;6240592;23;20686;-69
2022/07/03 05:53:28;;;;;;;3.35;3.03;;;19.90;68.20;;;;;;6229430;23;20020;-70
2022/07/03 05:55:54;;;;;;;5.05;2.70;;;19.90;68.10;;;;;;6229868;23;20071;-70
2022/07/03 05:58:20;;;;;;;3.60;2.92;;;20.00;67.60;;;;;;6230099;23;20040;-70
2022/07/03 06:00:46;;;;;;;5.40;2.70;;;20.10;67.90;;;;;;6230788;23;20008;-70
2022/07/03 06:03:12;;;;;;;3.33;2.63;;;20.30;67.20;;;;;;6230540;23;20759;-69
2022/07/03 06:05:38;;;;;;;3.92;3.10;;;20.30;66.90;;;;;;6229668;23;20012;-69
2022/07/03 06:08:04;;;;;;;3.05;2.83;;;20.40;67.20;;;;;;6229184;23;20012;-69
2022/07/03 06:10:31;;;;;;;3.03;2.70;;;20.50;66.30;;;;;;6229888;23;20035;-70
2022/07/03 06:12:57;;;;;;;3.28;2.72;;;20.60;65.80;;;;;;6229859;23;20011;-70
2022/07/03 06:15:23;;;;;;;2.50;2.30;;;20.80;65.70;;;;;;6239567;23;20007;-70
2022/07/03 06:17:49;;;;;;;2.67;2.40;;;20.90;65.60;;;;;;6203157;23;20338;-69
2022/07/03 06:20:15;;;;;;;3.10;2.70;;;21.00;64.00;;;;;;6228954;23;20642;-70
2022/07/03 06:22:41;;;;;;;2.95;2.40;;;21.10;64.20;;;;;;6229854;23;20020;-70
2022/07/03 06:25:08;;;;;;;3.70;2.40;;;21.20;63.30;;;;;;6229209;23;20012;-69
2022/07/03 06:27:34;;;;;;;2.53;2.33;;;21.20;63.70;;;;;;6240829;23;20015;-70
2022/07/03 06:29:59;;;;;;;3.83;2.40;;;21.30;63.80;;;;;;6242076;23;20014;-70
2022/07/03 06:32:25;;;;;;;3.22;2.30;;;21.40;64.00;;;;;;6232300;23;20004;-69
2022/07/03 06:34:52;;;;;;;2.75;2.15;;;21.50;63.10;;;;;;6232520;23;20040;-70
2022/07/03 06:37:18;;;;;;;3.05;2.28;;;21.60;62.50;;;;;;6243255;23;20015;-69
2022/07/03 06:39:44;;;;;;;2.55;2.00;;;21.60;62.90;;;;;;6231761;23;20464;-70
2022/07/03 06:42:10;;;;;;;2.53;2.03;;;21.70;62.60;;;;;;6233270;23;20533;-69
2022/07/03 06:44:36;;;;;;;2.20;2.00;;;21.80;62.00;;;;;;6243641;23;20008;-70
2022/07/03 06:47:03;;;;;;;3.20;2.20;;;21.90;61.80;;;;;;6232837;23;20014;-70
2022/07/03 06:49:31;;;;;;;4.18;2.00;;;22.00;61.70;;;;;;6232688;23;20122;-70
2022/07/03 06:51:57;;;;;;;2.35;2.08;;;22.20;61.80;;;;;;6232638;23;20047;-70
2022/07/03 06:54:23;;;;;;;1.92;1.83;;;22.20;60.60;;;;;;6232448;23;20008;-70
2022/07/03 06:56:49;;;;;;;3.33;2.30;;;22.30;60.50;;;;;;6243279;23;20729;-70
2022/07/03 06:59:15;;;;;;;2.85;2.10;;;22.40;60.30;;;;;;6232189;23;20020;-70
2022/07/03 07:01:40;;;;;;;2.72;1.92;;;22.50;60.20;;;;;;6242377;23;20020;-70
2022/07/03 07:04:06;;;;;;;2.40;2.10;;;22.70;60.20;;;;;;6232963;23;20004;-70
2022/07/03 07:06:32;;;;;;;2.67;1.90;;;22.80;59.00;;;;;;6233029;23;20011;-70
2022/07/03 07:08:58;;;;;;;2.28;1.83;;;22.80;58.80;;;;;;6241243;23;20030;-70
2022/07/03 07:11:23;;;;;;;2.50;2.00;;;22.80;58.00;;;;;;6232177;23;20050;-70
2022/07/03 07:13:49;;;;;;;3.45;1.90;;;22.90;58.70;;;;;;6241752;23;20007;-70
2022/07/03 07:16:15;;;;;;;2.03;1.83;;;22.90;58.60;;;;;;6232322;23;20031;-69
2022/07/03 07:18:41;;;;;;;2.50;1.60;;;23.10;58.50;;;;;;6231760;23;20015;-70
2022/07/03 07:21:08;;;;;;;3.95;1.67;;;23.20;57.80;;;;;;6232288;23;20012;-70
2022/07/03 07:23:34;;;;;;;2.15;1.60;;;23.20;58.10;;;;;;6231656;23;20012;-70
2022/07/03 07:25:59;;;;;;;2.15;1.98;;;23.40;58.20;;;;;;6231355;23;20150;-70
2022/07/03 07:28:25;;;;;;;8.27;3.72;;;23.50;57.60;;;;;;6231525;23;20016;-70
2022/07/03 07:30:56;;;;;;;6.32;2.55;;;23.50;57.20;;;;;;6231432;23;20012;-70
2022/07/03 07:33:22;;;;;;;2.42;2.00;;;23.60;57.10;;;;;;6242162;23;20008;-70
2022/07/03 07:35:48;;;;;;;2.17;1.80;;;23.70;57.30;;;;;;6241389;23;20119;-70
2022/07/03 07:38:14;;;;;;;6.20;2.08;;;23.70;56.10;;;;;;6230563;23;20011;-71
2022/07/03 07:40:40;;;;;;;4.65;2.08;;;23.90;56.30;;;;;;6230096;23;20016;-71
2022/07/03 07:43:06;;;;;;;2.85;1.95;;;23.90;56.40;;;;;;6230857;23;20430;-71
2022/07/03 07:45:32;;;;;;;2.55;1.83;;;23.90;55.50;;;;;;6203996;23;20472;-71
2022/07/03 07:47:57;;;;;;;4.15;2.00;;;24.00;55.60;;;;;;6230421;23;20028;-70
2022/07/03 07:50:23;;;;;;;3.15;1.73;;;24.00;54.60;;;;;;6231144;23;20039;-71
2022/07/03 07:52:49;;;;;;;6.47;1.60;;;24.10;54.10;;;;;;6230727;23;20087;-69
2022/07/03 07:55:15;;;;;;;2.63;1.80;;;24.10;53.90;;;;;;6230225;23;20395;-72
2022/07/03 07:57:41;;;;;;;2.28;1.60;;;24.20;53.70;;;;;;6231193;23;20019;-71
2022/07/03 08:00:13;;;;;;;3.42;1.73;;;24.20;54.00;;;;;;6240917;23;20149;-71
2022/07/03 08:05:36;;;;;;;2.40;2.10;;;24.10;53.70;;;;;;6231161;23;20337;-70
2022/07/03 08:08:09;;;;;;;3.90;1.60;;;24.20;54.30;;;;;;6231154;23;20050;-70
2022/07/03 08:10:49;;;;;;;26.45;15.38;;;24.40;54.30;;;;;;6240141;23;20195;-70
2022/07/03 08:13:17;;;;;;;4.80;1.77;;;24.50;53.70;;;;;;6231480;23;20004;-70
2022/07/03 08:15:44;;;;;;;1.98;1.50;;;24.80;52.20;;;;;;6240736;23;20020;-71
2022/07/03 08:18:10;;;;;;;1.65;1.52;;;24.90;51.30;;;;;;6241426;23;20014;-71
2022/07/03 08:20:37;;;;;;;4.03;1.35;;;25.00;51.10;;;;;;6225730;23;20035;-69
2022/07/03 08:23:03;;;;;;;2.17;1.33;;;25.10;50.90;;;;;;6240744;23;20039;-70
2022/07/03 08:25:32;;;;;;;1.85;1.40;;;25.10;50.70;;;;;;6231493;23;20015;-70
2022/07/03 08:27:58;;;;;;;2.03;1.52;;;25.10;51.90;;;;;;6203746;23;20019;-74
2022/07/03 08:30:25;;;;;;;1.38;1.25;;;25.10;51.50;;;;;;6241070;23;20030;-71
2022/07/03 08:32:53;;;;;;;2.92;1.77;;;25.20;51.30;;;;;;6230660;23;20484;-70
2022/07/03 08:35:19;;;;;;;1.38;1.23;;;25.30;51.80;;;;;;6232045;23;20004;-70
2022/07/03 08:37:46;;;;;;;1.48;1.38;;;25.50;51.20;;;;;;6229930;23;20008;-70
2022/07/03 08:40:14;;;;;;;2.92;1.70;;;25.60;50.70;;;;;;6230248;23;20808;-71
2022/07/03 08:42:49;;;;;;;2.47;1.63;;;25.50;50.20;;;;;;6240687;23;20016;-71
2022/07/03 08:45:18;;;;;;;3.70;1.93;;;25.50;50.80;;;;;;6240651;23;20019;-70
2022/07/03 08:47:46;;;;;;;1.60;1.50;;;25.50;52.30;;;;;;6229828;23;20516;-71
2022/07/03 08:50:13;;;;;;;1.98;1.55;;;25.70;51.50;;;;;;6240437;23;20015;-69
2022/07/03 08:52:40;;;;;;;2.88;1.63;;;25.90;51.10;;;;;;6227327;23;20603;-71
2022/07/03 08:55:07;;;;;;;1.92;1.50;;;26.00;50.40;;;;;;6228526;23;20019;-68
2022/07/03 08:57:33;;;;;;;3.08;1.45;;;26.10;50.50;;;;;;6230251;23;20012;-73
2022/07/03 09:00:03;;;;;;;2.03;1.77;;;26.20;48.90;;;;;;6239127;23;20095;-70
2022/07/03 09:02:31;;;;;;;1.60;1.50;;;26.30;50.20;;;;;;6230374;23;20032;-70
2022/07/03 09:04:58;;;;;;;1.90;1.80;;;26.30;49.50;;;;;;6230155;23;20016;-70
2022/07/03 09:07:27;;;;;;;2.47;1.60;;;26.40;50.00;;;;;;6239716;23;20015;-70
2022/07/03 09:09:53;;;;;;;1.80;1.70;;;26.50;48.90;;;;;;6229153;23;20655;-69
2022/07/03 09:12:20;;;;;;;3.00;1.48;;;26.50;50.20;;;;;;6230621;23;20111;-69
2022/07/03 09:14:45;;;;;;;1.40;1.30;;;26.60;48.40;;;;;;6229931;23;20019;-69
2022/07/03 09:17:11;;;;;;;1.63;1.30;;;26.60;48.60;;;;;;6236978;23;20008;-69
2022/07/03 09:19:43;;;;;;;2.47;1.40;;;26.70;49.40;;;;;;6228744;23;20014;-69
2022/07/03 09:22:32;;;;;;;2.75;1.70;;;26.90;49.10;;;;;;6228380;23;20011;-69
2022/07/03 09:25:04;;;;;;;2.47;1.48;;;27.00;48.90;;;;;;6228939;23;20454;-70
2022/07/03 09:27:29;;;;;;;4.38;1.50;;;27.10;48.00;;;;;;6239253;23;20395;-69
2022/07/03 09:30:04;;;;;;;3.70;1.50;;;27.20;47.50;;;;;;6227979;23;20036;-70
2022/07/03 09:32:49;;;;;;;1.30;1.20;;;27.20;47.80;;;;;;6229178;23;20016;-71
2022/07/03 09:35:35;;;;;;;2.25;1.40;;;27.20;45.80;;;;;;6202597;23;20055;-70
2022/07/03 09:38:02;;;;;;;1.50;1.40;;;27.10;47.10;;;;;;6227694;23;20103;-69
2022/07/03 09:40:51;;;;;;;1.63;1.50;;;27.20;47.70;;;;;;6239502;23;20010;-69
2022/07/03 09:43:28;;;;;;;2.05;1.17;;;27.20;48.10;;;;;;6227736;23;20020;-70
2022/07/03 09:45:59;;;;;;;2.17;1.50;;;27.20;46.50;;;;;;6238866;23;20012;-69
2022/07/03 09:48:31;;;;;;;1.45;1.35;;;27.20;46.50;;;;;;6229104;23;20720;-70
2022/07/03 09:51:19;;;;;;;1.60;1.40;;;27.20;45.40;;;;;;6228932;23;20086;-69
2022/07/03 09:53:51;;;;;;;1.88;1.45;;;27.20;45.90;;;;;;6239097;23;20008;-69
2022/07/03 09:56:21;;;;;;;4.05;1.63;;;27.20;46.10;;;;;;6229108;23;20012;-69
2022/07/03 09:59:21;;;;;;;1.55;1.40;;;27.20;46.20;;;;;;6228078;22;20034;-69
2022/07/03 10:01:47;;;;;;;1.80;1.35;;;27.10;44.90;;;;;;6147130;23;20397;-70
2022/07/03 10:04:22;;;;;;;1.20;1.10;;;27.00;46.20;;;;;;6241789;23;20083;-69
2022/07/03 10:06:59;;;;;;;3.38;1.50;;;27.10;44.50;;;;;;6240697;23;20086;-70
2022/07/03 10:09:30;;;;;;;1.63;1.10;;;27.20;45.60;;;;;;6231694;23;20012;-71
2022/07/03 10:11:58;;;;;;;3.05;1.20;;;27.30;44.70;;;;;;6241355;23;20621;-70
2022/07/03 10:14:29;;;;;;;2.05;1.50;;;27.30;44.40;;;;;;6230679;23;20050;-69
2022/07/03 10:16:59;;;;;;;1.77;1.20;;;27.20;44.30;;;;;;6239193;23;20004;-71
2022/07/03 10:19:30;;;;;;;1.95;1.20;;;27.20;44.90;;;;;;6230646;23;20016;-70
2022/07/03 10:21:58;;;;;;;2.25;1.30;;;27.30;45.50;;;;;;6230296;23;20609;-71
2022/07/03 10:24:29;;;;;;;2.78;1.20;;;27.40;45.80;;;;;;6230708;23;20014;-70
2022/07/03 10:26:57;;;;;;;1.30;1.20;;;27.50;45.30;;;;;;6204343;23;20011;-71
2022/07/03 10:29:25;;;;;;;1.90;1.40;;;27.70;45.10;;;;;;6241092;23;20018;-71
2022/07/03 10:31:51;;;;;;;2.20;1.30;;;27.80;45.50;;;;;;6232058;23;20040;-71
2022/07/03 10:34:22;;;;;;;1.27;1.13;;;27.90;44.70;;;;;;6232007;23;20338;-69
2022/07/03 10:36:55;;;;;;;1.55;1.13;;;27.90;44.00;;;;;;6230935;23;20023;-69
2022/07/03 10:39:38;;;;;;;1.77;1.23;;;27.90;43.50;;;;;;6229138;23;20019;-69
2022/07/03 10:45:04;;;;;;;1.33;1.20;;;28.30;43.60;;;;;;6231683;23;20015;-73
2022/07/03 10:47:49;;;;;;;1.42;1.30;;;28.40;43.00;;;;;;6205728;23;20012;-70
2022/07/03 10:50:19;;;;;;;1.20;1.10;;;28.20;43.70;;;;;;6232503;23;20012;-70
2022/07/03 10:52:45;;;;;;;1.40;1.10;;;28.10;43.70;;;;;;6231621;23;20239;-70
2022/07/03 10:55:13;;;;;;;1.85;1.30;;;28.10;43.60;;;;;;6232029;23;20123;-70
2022/07/03 10:57:41;;;;;;;1.92;0.95;;;28.20;43.10;;;;;;6230480;23;20102;-70
2022/07/03 11:00:12;;;;;;;1.27;1.17;;;28.40;43.10;;;;;;6230567;23;20031;-70
2022/07/03 11:02:50;;;;;;;1.50;1.40;;;28.40;41.70;;;;;;6231715;23;20030;-70
2022/07/03 11:05:18;;;;;;;4.78;2.45;;;28.40;43.10;;;;;;6232264;23;20469;-70
2022/07/03 11:08:04;;;;;;;1.27;1.10;;;28.50;43.80;;;;;;6231135;23;20508;-70
2022/07/03 11:10:30;;;;;;;1.45;1.05;;;28.60;42.90;;;;;;6232066;23;20016;-70
2022/07/03 11:12:56;;;;;;;2.05;1.30;;;28.60;42.80;;;;;;6231795;23;20595;-70
2022/07/03 11:15:34;;;;;;;3.20;1.20;;;28.70;43.60;;;;;;6230415;23;20008;-70
2022/07/03 11:18:11;;;;;;;1.70;1.17;;;28.80;42.30;;;;;;6204251;23;20008;-71
2022/07/03 11:20:43;;;;;;;1.30;1.20;;;28.90;42.80;;;;;;6230942;23;20047;-71
2022/07/03 11:23:27;;;;;;;1.98;1.45;;;29.00;42.30;;;;;;6231759;23;20091;-70
2022/07/03 11:25:56;;;;;;;1.58;1.20;;;28.90;42.70;;;;;;6242224;23;20027;-71
2022/07/03 11:28:31;;;;;;;3.20;1.30;;;28.90;43.90;;;;;;6230698;23;20346;-71
2022/07/03 11:31:15;;;;;;;1.00;1.00;;;28.90;42.80;;;;;;6231295;23;20008;-72
2022/07/03 11:33:58;;;;;;;2.97;1.27;;;28.90;42.80;;;;;;6231017;23;20035;-70
2022/07/03 11:36:25;;;;;;;1.27;1.17;;;29.00;40.80;;;;;;6231359;23;20015;-71
2022/07/03 11:38:57;;;;;;;1.35;1.25;;;29.00;41.30;;;;;;6231010;23;20000;-72
2022/07/03 11:41:28;;;;;;;1.92;1.27;;;29.10;41.70;;;;;;6231786;23;20010;-71
2022/07/03 11:43:55;;;;;;;1.20;1.05;;;29.10;42.60;;;;;;6230977;23;20028;-71
2022/07/03 11:46:26;;;;;;;1.63;1.17;;;29.10;41.70;;;;;;6231182;23;20012;-71
2022/07/03 11:49:08;;;;;;;1.15;1.05;;;29.10;42.50;;;;;;6231664;23;20012;-71
2022/07/03 11:51:35;;;;;;;9.93;6.93;;;29.20;42.20;;;;;;6230571;23;20019;-71
2022/07/03 11:54:01;;;;;;;2.08;1.10;;;29.20;41.90;;;;;;6241506;23;20505;-70
2022/07/03 11:56:28;;;;;;;4.22;1.13;;;29.30;41.70;;;;;;6231830;23;20008;-71
2022/07/03 11:58:58;;;;;;;1.45;1.10;;;29.40;42.10;;;;;;6230512;23;20014;-70
2022/07/03 12:01:27;;;;;;;1.20;1.10;;;29.30;42.00;;;;;;6231454;23;20008;-71
2022/07/03 12:03:54;;;;;;;0.82;0.82;;;29.30;41.50;;;;;;6241585;23;20004;-70
2022/07/03 12:06:20;;;;;;;1.17;1.10;;;29.20;41.60;;;;;;6230993;23;20008;-70
2022/07/03 12:08:46;;;;;;;1.55;1.13;;;29.40;41.80;;;;;;6230900;23;20867;-71
2022/07/03 12:11:14;;;;;;;2.42;1.08;;;29.40;41.30;;;;;;6230682;23;20012;-71
2022/07/03 12:13:40;;;;;;;2.10;1.25;;;29.50;41.30;;;;;;6229339;23;20008;-71
2022/07/03 12:16:12;;;;;;;1.20;1.10;;;29.50;40.90;;;;;;6230727;23;20008;-70
2022/07/03 12:18:47;;;;;;;1.58;1.15;;;29.50;39.30;;;;;;6230293;23;20012;-69
2022/07/03 12:21:14;;;;;;;2.67;1.17;;;29.60;41.10;;;;;;6241200;23;20483;-70
2022/07/03 12:23:50;;;;;;;1.92;1.27;;;29.70;40.40;;;;;;6230560;23;20571;-72
2022/07/03 12:26:34;;;;;;;2.63;1.27;;;29.60;41.10;;;;;;6230724;23;20016;-71
2022/07/03 12:29:03;;;;;;;1.20;1.10;;;29.60;41.30;;;;;;6229477;23;20497;-71
2022/07/03 12:31:30;;;;;;;1.35;1.20;;;29.70;41.70;;;;;;6230400;23;20091;-71
2022/07/03 12:33:59;;;;;;;1.08;0.98;;;29.80;40.50;;;;;;6228718;23;20008;-71
2022/07/03 12:36:26;;;;;;;0.93;0.93;;;29.80;39.10;;;;;;6229299;23;20008;-71
2022/07/03 12:38:53;;;;;;;3.40;1.40;;;29.70;38.80;;;;;;6229956;23;20012;-71
2022/07/03 12:41:20;;;;;;;0.98;0.98;;;29.60;39.50;;;;;;6230046;23;20011;-71
2022/07/03 12:43:48;;;;;;;1.80;1.10;;;29.50;41.10;;;;;;6239968;23;20061;-71
2022/07/03 12:46:28;;;;;;;2.72;1.30;;;29.50;39.80;;;;;;6240817;23;20008;-71
2022/07/03 12:48:56;;;;;;;1.17;1.00;;;29.40;41.00;;;;;;6231030;23;20073;-71
2022/07/03 12:51:40;;;;;;;1.48;1.00;;;29.30;41.30;;;;;;6230992;23;20016;-71
2022/07/03 12:54:06;;;;;;;2.53;1.35;;;29.20;40.10;;;;;;6231247;23;20350;-70
2022/07/03 12:56:33;;;;;;;1.88;1.23;;;29.20;40.80;;;;;;6240206;23;20015;-70
2022/07/03 12:59:17;;;;;;;3.42;2.72;;;29.20;40.80;;;;;;6229330;23;20071;-70
2022/07/03 13:02:00;;;;;;;1.65;1.20;;;29.30;41.80;;;;;;6240739;23;20011;-71
2022/07/03 13:04:35;;;;;;;1.27;1.00;;;29.30;39.70;;;;;;6230333;23;20032;-70
2022/07/03 13:07:07;;;;;;;1.15;1.10;;;29.20;40.40;;;;;;6230728;23;20579;-71
2022/07/03 13:09:34;;;;;;;2.72;1.77;;;29.20;40.50;;;;;;6230526;23;20015;-71